< < Back
Terminal Aerodrome Forecast


Current Version              Previous Versions:   1  2  3  4  5  6  7  8  9  

Terminal Aerodrome Forecast

225
FTUS44 KHUN 291720
TAFHSV
TAF
KHSV 291720Z 2918/3018 35010KT P6SM SCT040
     FM300000 01004KT P6SM SKC=



Latest METAR

809
SAUS80 KWBC 300500 RRB
MTRHSV
METAR KHSV 300453Z 03003KT 10SM CLR 17/14 A3009 RMK AO2 SLP182 LAST
T01720139


USA.gov is the U.S. government's official web portal to all federal, state and local government web resources and services.